createdAt,value
2022-09-20T00:01:11.626Z,93.20
2022-09-20T00:03:41.741Z,93.98
2022-09-20T00:06:11.609Z,95.07
2022-09-20T00:08:40.257Z,94.14
2022-09-20T00:11:09.734Z,94.11
2022-09-20T00:13:38.257Z,93.70
2022-09-20T00:16:06.864Z,93.85
2022-09-20T00:18:34.770Z,93.86
2022-09-20T00:21:02.761Z,93.82
2022-09-20T00:23:31.096Z,94.32
2022-09-20T00:26:00.188Z,93.98
2022-09-20T00:28:28.853Z,93.63
2022-09-20T00:30:56.984Z,93.35
2022-09-20T00:33:45.369Z,93.93
2022-09-20T00:36:13.216Z,94.25
2022-09-20T00:38:41.005Z,93.86
2022-09-20T00:41:08.867Z,93.70
2022-09-20T00:43:46.136Z,94.44
2022-09-20T00:46:26.151Z,95.48
2022-09-20T00:48:56.212Z,94.62
2022-09-20T00:51:27.567Z,95.28
2022-09-20T00:53:57.537Z,95.04
2022-09-20T00:56:27.810Z,94.88
2022-09-20T00:59:00.796Z,94.89
2022-09-20T01:01:29.059Z,94.81
2022-09-20T01:03:57.451Z,95.51
2022-09-20T01:06:25.722Z,95.39
2022-09-20T01:08:56.245Z,95.16
2022-09-20T01:11:25.046Z,95.18
2022-09-20T01:13:53.008Z,95.66
2022-09-20T01:16:21.954Z,95.33
2022-09-20T01:18:50.679Z,95.23
2022-09-20T01:21:19.240Z,95.12
2022-09-20T01:23:56.254Z,95.02
2022-09-20T01:26:38.341Z,95.00
2022-09-20T01:29:30.452Z,94.71
2022-09-20T01:32:01.929Z,94.82
2022-09-20T01:34:33.686Z,94.92
2022-09-20T01:37:24.691Z,95.04
2022-09-20T01:39:58.905Z,95.61
2022-09-20T01:42:32.547Z,95.76
2022-09-20T01:45:21.375Z,95.53
2022-09-20T01:47:55.282Z,95.33
2022-09-20T01:50:28.544Z,95.14
2022-09-20T01:52:56.336Z,95.38
2022-09-20T01:55:30.041Z,94.90
2022-09-20T01:58:01.082Z,94.96
2022-09-20T02:00:31.070Z,95.81
2022-09-20T02:03:01.847Z,95.22
2022-09-20T02:05:42.010Z,95.05
2022-09-20T02:08:09.852Z,94.88
2022-09-20T02:10:37.529Z,94.92
2022-09-20T02:13:05.276Z,95.41
2022-09-20T02:16:05.154Z,94.98
2022-09-20T02:18:51.870Z,94.84
2022-09-20T02:21:32.071Z,94.52
2022-09-20T02:24:09.609Z,94.14
2022-09-20T02:26:44.344Z,93.99
2022-09-20T02:29:35.050Z,94.47
2022-09-20T02:32:08.928Z,94.51
2022-09-20T02:35:05.862Z,94.60
2022-09-20T02:37:33.631Z,94.71
2022-09-20T02:40:20.182Z,94.75
2022-09-20T02:42:55.101Z,94.97
2022-09-20T02:45:41.276Z,95.10
2022-09-20T02:48:09.310Z,95.80
2022-09-20T02:50:52.281Z,95.78
2022-09-20T02:53:38.409Z,95.78
2022-09-20T02:56:22.270Z,95.61
2022-09-20T02:58:55.640Z,95.37
2022-09-20T03:01:35.025Z,95.37
2022-09-20T03:04:15.341Z,95.51
2022-09-20T03:06:51.403Z,95.60
2022-09-20T03:09:19.367Z,96.00
2022-09-20T03:12:00.967Z,96.13
2022-09-20T03:14:28.743Z,95.90
2022-09-20T03:17:03.182Z,95.92
2022-09-20T03:19:39.930Z,96.02
2022-09-20T03:22:26.624Z,96.30
2022-09-20T03:25:06.666Z,96.19
2022-09-20T03:27:52.813Z,96.09
2022-09-20T03:30:35.772Z,95.99
2022-09-20T03:33:29.545Z,96.33
2022-09-20T03:36:03.578Z,96.54
2022-09-20T03:38:43.579Z,96.63
2022-09-20T03:41:14.462Z,96.53
2022-09-20T03:43:57.729Z,96.49
2022-09-20T03:46:42.291Z,96.28
2022-09-20T03:49:25.077Z,96.35
2022-09-20T03:52:02.038Z,96.16
2022-09-20T03:54:34.373Z,95.58
2022-09-20T03:57:09.241Z,95.65
2022-09-20T03:59:43.146Z,95.94
2022-09-20T04:02:11.151Z,95.57
2022-09-20T04:04:48.095Z,95.67
2022-09-20T04:07:43.609Z,95.96
2022-09-20T04:10:13.741Z,95.43
2022-09-20T04:13:00.400Z,95.98
2022-09-20T04:15:46.938Z,95.70
2022-09-20T04:18:23.881Z,95.70
2022-09-20T04:20:54.569Z,95.91
2022-09-20T04:23:43.408Z,96.36
2022-09-20T04:26:11.276Z,96.17
2022-09-20T04:28:48.764Z,96.28
2022-09-20T04:31:24.640Z,96.00
2022-09-20T04:33:54.742Z,95.73
2022-09-20T04:36:36.056Z,95.82
2022-09-20T04:39:24.267Z,95.91
2022-09-20T04:42:04.303Z,95.83
2022-09-20T04:44:47.477Z,95.69
2022-09-20T04:47:28.881Z,96.00
2022-09-20T04:50:15.181Z,95.98
2022-09-20T04:52:46.000Z,96.65
2022-09-20T04:55:19.471Z,96.14
2022-09-20T04:57:54.069Z,96.32
2022-09-20T05:00:24.214Z,96.26
2022-09-20T05:03:11.478Z,95.72
2022-09-20T05:05:56.035Z,95.74
2022-09-20T05:08:35.926Z,95.42
2022-09-20T05:11:08.588Z,95.46
2022-09-20T05:13:42.612Z,95.48
2022-09-20T05:16:42.045Z,95.46
2022-09-20T05:19:26.668Z,96.00
2022-09-20T05:22:03.212Z,95.77
2022-09-20T05:24:30.899Z,95.37
2022-09-20T05:27:02.050Z,95.27
2022-09-20T05:29:36.027Z,95.14
2022-09-20T05:32:12.207Z,95.33
2022-09-20T05:34:48.740Z,95.39
2022-09-20T05:37:35.089Z,95.43
2022-09-20T05:40:06.554Z,95.65
2022-09-20T05:42:34.505Z,95.45
2022-09-20T05:45:08.112Z,95.28
2022-09-20T05:47:41.932Z,95.21
2022-09-20T05:50:09.882Z,94.75
2022-09-20T05:52:46.046Z,94.65
2022-09-20T05:55:19.847Z,94.48
2022-09-20T05:58:01.340Z,93.98
2022-09-20T06:00:53.090Z,93.72
2022-09-20T06:03:23.803Z,93.71
2022-09-20T06:06:01.291Z,93.49
2022-09-20T06:08:50.349Z,94.11
2022-09-20T06:11:28.842Z,94.55
2022-09-20T06:14:10.350Z,94.33
2022-09-20T06:16:57.059Z,94.35
2022-09-20T06:19:41.821Z,94.55
2022-09-20T06:22:16.398Z,93.96
2022-09-20T06:24:59.159Z,93.71
2022-09-20T06:27:31.242Z,93.26
2022-09-20T06:30:02.676Z,93.11
2022-09-20T06:32:31.465Z,93.08
2022-09-20T06:35:00.767Z,93.23
2022-09-20T06:37:47.165Z,92.90
2022-09-20T06:40:51.790Z,92.37
2022-09-20T06:43:19.562Z,92.09
2022-09-20T06:45:48.537Z,91.97
2022-09-20T06:48:16.807Z,92.37
2022-09-20T06:50:45.403Z,93.00
2022-09-20T06:53:16.537Z,92.75
2022-09-20T06:55:45.349Z,92.90
2022-09-20T06:58:13.249Z,92.88
2022-09-20T07:00:41.147Z,92.91
2022-09-20T07:03:08.982Z,92.60
2022-09-20T07:05:36.799Z,92.32
2022-09-20T07:08:04.574Z,91.69
2022-09-20T07:10:32.630Z,91.30
2022-09-20T07:13:01.918Z,90.37
2022-09-20T07:15:32.246Z,90.40
2022-09-20T07:18:00.690Z,89.38
2022-09-20T07:20:28.533Z,89.03
2022-09-20T07:22:56.341Z,88.85
2022-09-20T07:25:23.983Z,88.87
2022-09-20T07:27:51.897Z,88.52
2022-09-20T07:30:20.374Z,87.93
2022-09-20T07:32:48.258Z,87.21
2022-09-20T07:35:16.108Z,87.33
2022-09-20T07:37:44.627Z,87.60
2022-09-20T07:40:12.604Z,87.25
2022-09-20T07:42:40.611Z,87.49
2022-09-20T07:45:08.684Z,87.89
2022-09-20T07:47:36.391Z,88.47
2022-09-20T07:50:04.344Z,89.03
2022-09-20T07:52:32.023Z,89.25
2022-09-20T07:54:59.647Z,89.21
2022-09-20T07:57:27.403Z,89.08
2022-09-20T07:59:55.091Z,89.06
2022-09-20T08:02:22.760Z,88.83
2022-09-20T08:04:50.504Z,88.96
2022-09-20T08:07:18.654Z,88.41
2022-09-20T08:09:46.361Z,88.24
2022-09-20T08:15:02.246Z,88.69
2022-09-20T08:17:30.293Z,88.26
2022-09-20T08:19:57.901Z,87.74
2022-09-20T08:22:25.576Z,86.45
2022-09-20T08:24:53.252Z,86.29
2022-09-20T08:27:21.060Z,85.41
2022-09-20T08:29:49.744Z,85.19
2022-09-20T08:32:18.329Z,84.35
2022-09-20T08:34:49.294Z,83.00
2022-09-20T08:37:17.336Z,83.18
2022-09-20T08:40:00.972Z,81.95
2022-09-20T08:42:35.703Z,81.87
2022-09-20T08:45:11.365Z,82.11
2022-09-20T08:47:46.682Z,81.89
2022-09-20T08:50:17.915Z,82.17
2022-09-20T08:52:48.560Z,82.16
2022-09-20T08:55:21.319Z,81.38
2022-09-20T08:57:58.434Z,81.31
2022-09-20T09:00:32.033Z,79.80
2022-09-20T09:03:04.401Z,79.27
2022-09-20T09:05:44.325Z,80.36
2022-09-20T09:08:19.807Z,79.17
2022-09-20T09:10:57.714Z,78.43
2022-09-20T09:13:28.410Z,77.85
2022-09-20T09:15:59.065Z,77.35
2022-09-20T09:18:31.954Z,77.34
2022-09-20T09:21:02.546Z,77.04
2022-09-20T09:23:36.158Z,75.92
2022-09-20T09:26:05.548Z,75.38
2022-09-20T09:28:37.140Z,75.91
2022-09-20T09:31:25.839Z,75.76
2022-09-20T09:33:53.854Z,75.46
2022-09-20T09:36:25.991Z,74.89
2022-09-20T09:39:13.543Z,75.06
2022-09-20T09:41:41.240Z,75.47
2022-09-20T09:44:24.110Z,75.37
2022-09-20T09:46:53.752Z,76.46
2022-09-20T09:49:23.137Z,75.01
2022-09-20T09:52:02.266Z,73.90
2022-09-20T09:54:36.475Z,74.23
2022-09-20T09:57:24.397Z,73.41
2022-09-20T10:00:12.663Z,72.82
2022-09-20T10:03:01.174Z,72.44
2022-09-20T10:05:34.870Z,72.53
2022-09-20T10:08:05.635Z,72.06
2022-09-20T10:10:34.420Z,72.02
2022-09-20T10:13:08.938Z,71.68
2022-09-20T10:15:44.604Z,70.63
2022-09-20T10:18:35.575Z,68.71
2022-09-20T10:21:22.132Z,69.28
2022-09-20T10:24:03.495Z,68.77
2022-09-20T10:26:50.832Z,68.51
2022-09-20T10:29:32.620Z,69.37
2022-09-20T10:32:15.508Z,69.98
2022-09-20T10:34:49.345Z,69.86
2022-09-20T10:37:48.479Z,69.31
2022-09-20T10:40:16.977Z,68.34
2022-09-20T10:43:08.339Z,67.29
2022-09-20T10:48:52.623Z,69.26
2022-09-20T10:51:47.201Z,68.35
2022-09-20T10:54:24.971Z,67.64
2022-09-20T10:57:00.534Z,67.36
2022-09-20T10:59:47.345Z,68.27
2022-09-20T11:02:15.223Z,67.63
2022-09-20T11:05:01.817Z,65.69
2022-09-20T11:07:32.768Z,65.77
2022-09-20T11:10:07.688Z,65.93
2022-09-20T11:12:39.661Z,65.33
2022-09-20T11:15:26.161Z,65.69
2022-09-20T11:18:08.954Z,65.08
2022-09-20T11:20:46.272Z,66.22
2022-09-20T11:23:17.927Z,66.94
2022-09-20T11:25:56.997Z,66.40
2022-09-20T11:28:25.716Z,65.90
2022-09-20T11:31:07.209Z,65.12
2022-09-20T11:33:46.762Z,65.79
2022-09-20T11:36:22.706Z,67.21
2022-09-20T11:38:54.581Z,64.88
2022-09-20T11:41:26.339Z,64.04
2022-09-20T11:43:55.948Z,63.40
2022-09-20T11:46:44.040Z,63.78
2022-09-20T11:49:34.362Z,63.49
2022-09-20T11:52:03.162Z,63.91
2022-09-20T11:54:30.787Z,64.30
2022-09-20T11:56:59.972Z,64.75
2022-09-20T11:59:34.752Z,65.16
2022-09-20T12:02:05.191Z,64.42
2022-09-20T12:04:35.497Z,63.78
2022-09-20T12:07:08.924Z,64.09
2022-09-20T12:09:41.018Z,60.89
2022-09-20T12:12:27.120Z,59.47
2022-09-20T12:14:58.731Z,60.15
2022-09-20T12:17:45.530Z,59.53
2022-09-20T12:20:31.926Z,59.84
2022-09-20T12:23:18.298Z,58.72
2022-09-20T12:26:05.025Z,59.85
2022-09-20T12:28:34.390Z,59.86
2022-09-20T12:31:20.975Z,59.85
2022-09-20T12:33:54.940Z,59.54
2022-09-20T12:36:23.506Z,59.57
2022-09-20T12:38:59.218Z,59.80
2022-09-20T12:41:28.874Z,59.80
2022-09-20T12:43:59.703Z,60.70
2022-09-20T12:46:27.445Z,61.65
2022-09-20T12:49:49.413Z,62.42
2022-09-20T12:52:44.337Z,61.31
2022-09-20T12:55:25.915Z,61.85
2022-09-20T12:58:12.000Z,62.17
2022-09-20T13:00:46.632Z,61.06
2022-09-20T13:03:21.759Z,61.47
2022-09-20T13:05:52.697Z,62.14
2022-09-20T13:08:29.085Z,62.46
2022-09-20T13:11:01.786Z,61.77
2022-09-20T13:13:41.226Z,61.40
2022-09-20T13:16:20.179Z,61.20
2022-09-20T13:18:54.446Z,61.71
2022-09-20T13:21:23.273Z,61.49
2022-09-20T13:23:53.657Z,61.73
2022-09-20T13:26:24.367Z,61.26
2022-09-20T13:28:54.383Z,61.72
2022-09-20T13:31:24.370Z,62.09
2022-09-20T13:33:52.780Z,63.18
2022-09-20T13:36:30.338Z,63.67
2022-09-20T13:38:58.838Z,62.13
2022-09-20T13:41:29.287Z,60.94
2022-09-20T13:43:57.659Z,61.48
2022-09-20T13:46:43.150Z,61.63
2022-09-20T13:49:15.009Z,62.64
2022-09-20T13:51:42.673Z,63.66
2022-09-20T13:54:30.078Z,62.13
2022-09-20T13:57:02.966Z,62.58
2022-09-20T13:59:34.116Z,63.38
2022-09-20T14:02:03.017Z,63.31
2022-09-20T14:04:31.691Z,63.59
2022-09-20T14:07:00.943Z,63.91
2022-09-20T14:09:31.627Z,64.10
2022-09-20T14:12:00.400Z,62.87
2022-09-20T14:14:29.330Z,61.48
2022-09-20T14:16:58.126Z,61.77
2022-09-20T14:19:31.783Z,61.65
2022-09-20T14:22:03.129Z,60.99
2022-09-20T14:24:33.011Z,62.43
2022-09-20T14:27:06.954Z,62.67
2022-09-20T14:29:34.578Z,63.31
2022-09-20T14:32:09.950Z,63.57
2022-09-20T14:34:38.743Z,64.06
2022-09-20T14:37:12.371Z,63.96
2022-09-20T14:39:48.708Z,63.49
2022-09-20T14:42:36.133Z,64.18
2022-09-20T14:45:05.434Z,63.56
2022-09-20T14:47:50.325Z,64.10
2022-09-20T14:50:24.325Z,64.60
2022-09-20T14:53:07.430Z,64.72
2022-09-20T14:55:37.917Z,63.96
2022-09-20T14:58:13.492Z,64.22
2022-09-20T15:01:05.350Z,64.62
2022-09-20T15:03:41.222Z,64.69
2022-09-20T15:06:13.470Z,65.25
2022-09-20T15:08:46.169Z,65.39
2022-09-20T15:11:15.437Z,65.31
2022-09-20T15:13:43.117Z,65.12
2022-09-20T15:16:12.651Z,65.01
2022-09-20T15:18:43.951Z,64.16
2022-09-20T15:21:12.232Z,65.49
2022-09-20T15:23:40.480Z,67.17
2022-09-20T15:26:10.703Z,66.91
2022-09-20T15:28:38.386Z,66.93
2022-09-20T15:31:06.045Z,67.03
2022-09-20T15:33:34.343Z,67.33
2022-09-20T15:36:02.596Z,67.51
2022-09-20T15:38:30.463Z,68.23
2022-09-20T15:41:00.164Z,68.39
2022-09-20T15:43:29.949Z,69.86
2022-09-20T15:46:00.945Z,70.40
2022-09-20T15:48:30.018Z,70.31
2022-09-20T15:50:59.112Z,70.68
2022-09-20T15:53:26.784Z,70.71
2022-09-20T15:55:54.495Z,71.44
2022-09-20T15:58:22.303Z,70.85
2022-09-20T16:00:50.026Z,71.05
2022-09-20T16:03:17.893Z,71.18
2022-09-20T16:05:46.111Z,70.65
2022-09-20T16:08:13.879Z,71.13
2022-09-20T16:10:41.625Z,70.86
2022-09-20T16:13:09.361Z,70.73
2022-09-20T16:15:38.757Z,72.32
2022-09-20T16:18:26.635Z,71.57
2022-09-20T16:20:54.433Z,73.31
2022-09-20T16:23:25.915Z,73.58
2022-09-20T16:25:55.254Z,74.51
2022-09-20T16:28:23.134Z,73.89
2022-09-20T16:30:57.552Z,73.97
2022-09-20T16:33:25.337Z,74.19
2022-09-20T16:35:53.570Z,74.73
2022-09-20T16:38:23.110Z,73.91
2022-09-20T16:40:54.957Z,74.54
2022-09-20T16:43:26.077Z,74.32
2022-09-20T16:46:00.857Z,74.85
2022-09-20T16:48:31.313Z,76.21
2022-09-20T16:50:59.506Z,76.09
2022-09-20T16:53:28.199Z,76.01
2022-09-20T16:55:56.133Z,76.00
2022-09-20T16:58:28.591Z,76.88
2022-09-20T17:01:04.191Z,77.26
2022-09-20T17:03:33.070Z,76.51
2022-09-20T17:06:02.140Z,75.98
2022-09-20T17:08:29.944Z,76.10
2022-09-20T17:11:01.687Z,76.44
2022-09-20T17:13:35.595Z,77.53
2022-09-20T17:16:05.484Z,77.94
2022-09-20T17:18:33.659Z,78.14
2022-09-20T17:21:07.591Z,78.52
2022-09-20T17:23:35.748Z,79.16
2022-09-20T17:26:06.368Z,78.67
2022-09-20T17:28:35.841Z,78.35
2022-09-20T17:31:04.742Z,78.91
2022-09-20T17:33:34.280Z,79.41
2022-09-20T17:36:03.780Z,79.05
2022-09-20T17:38:33.606Z,78.88
2022-09-20T17:41:08.405Z,79.17
2022-09-20T17:43:37.522Z,79.15
2022-09-20T17:46:06.695Z,78.81
2022-09-20T17:48:34.602Z,79.24
2022-09-20T17:51:03.246Z,79.77
2022-09-20T17:53:32.656Z,80.58
2022-09-20T17:56:01.575Z,80.20
2022-09-20T17:58:29.489Z,80.13
2022-09-20T18:01:12.876Z,80.83
2022-09-20T18:03:42.935Z,81.25
2022-09-20T18:06:17.148Z,81.68
2022-09-20T18:08:45.996Z,80.77
2022-09-20T18:11:14.154Z,80.71
2022-09-20T18:13:42.182Z,80.62
2022-09-20T18:16:13.624Z,80.46
2022-09-20T18:18:42.304Z,80.23
2022-09-20T18:21:15.040Z,80.25
2022-09-20T18:23:43.840Z,80.62
2022-09-20T18:26:22.559Z,80.29
2022-09-20T18:29:04.842Z,80.53
2022-09-20T18:31:33.572Z,81.39
2022-09-20T18:34:05.922Z,81.13
2022-09-20T18:36:34.915Z,81.29
2022-09-20T18:39:03.302Z,81.35
2022-09-20T18:41:33.026Z,82.17
2022-09-20T18:44:04.555Z,82.00
2022-09-20T18:46:32.495Z,82.58
2022-09-20T18:49:04.676Z,83.05
2022-09-20T18:51:35.850Z,83.03
2022-09-20T18:54:10.246Z,83.29
2022-09-20T18:56:39.274Z,83.41
2022-09-20T18:59:17.458Z,83.51
2022-09-20T19:01:55.973Z,83.55
2022-09-20T19:04:42.567Z,84.01
2022-09-20T19:07:10.341Z,83.96
2022-09-20T19:09:38.287Z,83.97
2022-09-20T19:12:18.196Z,83.98
2022-09-20T19:15:04.803Z,84.05
2022-09-20T19:17:51.029Z,83.94
2022-09-20T19:20:35.109Z,83.87
2022-09-20T19:23:25.506Z,83.92
2022-09-20T19:26:06.266Z,84.10
2022-09-20T19:28:34.545Z,84.14
2022-09-20T19:31:02.903Z,84.26
2022-09-20T19:33:30.919Z,84.34
2022-09-20T19:35:59.215Z,84.52
2022-09-20T19:38:36.117Z,85.56
2022-09-20T19:41:05.136Z,85.04
2022-09-20T19:43:45.355Z,86.10
2022-09-20T19:46:17.363Z,87.26
2022-09-20T19:48:49.728Z,86.05
2022-09-20T19:51:17.804Z,86.71
2022-09-20T19:53:45.837Z,85.69
2022-09-20T19:56:14.447Z,85.16
2022-09-20T19:58:43.445Z,85.47
2022-09-20T20:01:11.473Z,85.22
2022-09-20T20:03:39.375Z,85.27
2022-09-20T20:06:31.322Z,85.14
2022-09-20T20:09:01.944Z,85.45
2022-09-20T20:11:48.291Z,85.90
2022-09-20T20:14:27.580Z,86.03
2022-09-20T20:17:03.021Z,86.09
2022-09-20T20:19:49.264Z,86.20
2022-09-20T20:22:29.367Z,86.14
2022-09-20T20:24:57.509Z,86.56
2022-09-20T20:27:28.530Z,86.56
2022-09-20T20:29:56.658Z,86.45
2022-09-20T20:32:24.520Z,86.55
2022-09-20T20:34:52.280Z,86.90
2022-09-20T20:37:24.146Z,86.96
2022-09-20T20:39:52.217Z,86.87
2022-09-20T20:42:20.944Z,87.20
2022-09-20T20:44:48.666Z,87.27
2022-09-20T20:47:16.429Z,87.38
2022-09-20T20:49:44.129Z,87.53
2022-09-20T20:52:11.829Z,87.76
2022-09-20T20:54:39.570Z,87.73
2022-09-20T20:57:07.381Z,87.93
2022-09-20T20:59:35.143Z,88.40
2022-09-20T21:02:07.668Z,88.40
2022-09-20T21:04:37.237Z,88.24
2022-09-20T21:07:05.504Z,88.24
2022-09-20T21:09:33.312Z,88.18
2022-09-20T21:12:01.133Z,88.12
2022-09-20T21:14:34.022Z,88.36
2022-09-20T21:17:02.808Z,88.47
2022-09-20T21:19:30.550Z,88.45
2022-09-20T21:21:58.378Z,88.74
2022-09-20T21:24:26.198Z,89.02
2022-09-20T21:26:53.916Z,89.47
2022-09-20T21:29:21.623Z,89.88
2022-09-20T21:31:49.282Z,90.04
2022-09-20T21:34:17.152Z,90.34
2022-09-20T21:36:45.155Z,90.45
2022-09-20T21:39:13.400Z,90.69
2022-09-20T21:41:41.498Z,90.47
2022-09-20T21:44:12.262Z,90.36
2022-09-20T21:46:41.635Z,89.96
2022-09-20T21:49:10.970Z,89.77
2022-09-20T21:51:41.535Z,89.60
2022-09-20T21:54:09.767Z,89.66
2022-09-20T21:56:38.391Z,89.83
2022-09-20T21:59:06.385Z,89.72
2022-09-20T22:01:38.891Z,90.10
2022-09-20T22:04:07.721Z,90.58
2022-09-20T22:06:37.025Z,90.79
2022-09-20T22:09:06.567Z,90.88
2022-09-20T22:11:38.879Z,90.99
2022-09-20T22:14:07.685Z,91.37
2022-09-20T22:16:40.378Z,91.60
2022-09-20T22:19:09.846Z,92.01
2022-09-20T22:21:39.130Z,91.93
2022-09-20T22:24:08.059Z,92.03
2022-09-20T22:26:40.488Z,92.63
2022-09-20T22:29:08.369Z,92.94
2022-09-20T22:31:37.915Z,92.74
2022-09-20T22:34:07.277Z,92.81
2022-09-20T22:36:36.282Z,93.07
2022-09-20T22:39:05.251Z,93.36
2022-09-20T22:41:33.322Z,93.60
2022-09-20T22:44:01.073Z,93.73
2022-09-20T22:46:29.734Z,94.06
2022-09-20T22:48:57.552Z,94.57
2022-09-20T22:51:26.765Z,94.60
2022-09-20T22:53:54.739Z,94.88
2022-09-20T22:56:25.165Z,95.03
2022-09-20T22:58:55.386Z,95.29
2022-09-20T23:01:24.650Z,95.32
2022-09-20T23:04:08.523Z,95.55
2022-09-20T23:06:37.943Z,96.29
2022-09-20T23:09:08.213Z,95.73
2022-09-20T23:11:36.940Z,95.31
2022-09-20T23:14:05.950Z,95.48
2022-09-20T23:16:35.634Z,95.77
2022-09-20T23:19:04.634Z,96.06
2022-09-20T23:21:33.165Z,96.18
2022-09-20T23:24:02.514Z,96.26
2022-09-20T23:26:31.302Z,96.50
2022-09-20T23:29:00.494Z,96.92
2022-09-20T23:31:29.205Z,97.13
2022-09-20T23:33:58.078Z,97.18
2022-09-20T23:36:27.172Z,97.66
2022-09-20T23:38:55.043Z,98.05
2022-09-20T23:41:23.827Z,97.17
2022-09-20T23:43:51.765Z,97.20
2022-09-20T23:46:20.489Z,97.41
2022-09-20T23:48:50.263Z,97.21
2022-09-20T23:51:22.668Z,97.02
2022-09-20T23:53:51.003Z,97.06
2022-09-20T23:56:19.622Z,96.83
2022-09-20T23:58:48.696Z,96.82
